75000 - Paris

Modèle arome - 04/05/2026 18:00
Altitude : 28 - 131m

05/05/2026 à 11:58 (UTC)

Date (UTC!) Model Picto Température Min Max T850 T950 Humidité Précipitation Neige (proba) Pression Nuages Bas Nuages Moyen Nuages Haut Nuages Total Nuages Corrigés CAPE Iso Vent (dir) Vent (vitesse) Rafales (vitesse)
04/05 - 19:00 arome 16,23 16,22 16,49 6,23 11,94 83,38 0,02 (1h) 0,00 10,11 69,00 100,00 100,00 100,01 100,00 354,71 0,00 329,84 7,95 14,87
04/05 - 20:00 arome 15,85 15,85 16,21 6,68 11,99 84,32 0,00 (1h) 0,00 10,11 55,20 100,00 100,00 100,01 100,00 325,36 0,00 334,44 7,34 16,66
04/05 - 21:00 arome 15,50 15,50 15,85 6,50 12,04 87,20 0,32 (1h) 0,00 10,11 7,20 35,00 100,00 100,01 50,01 256,99 0,00 339,02 7,94 17,13
04/05 - 22:00 arome 15,40 15,40 15,51 6,58 12,37 85,26 0,00 (1h) 0,00 10,11 0,00 0,00 100,00 100,01 50,01 121,75 0,00 352,65 9,00 16,56
04/05 - 23:00 arome 14,71 14,71 15,40 6,50 12,34 86,59 0,00 (1h) 0,00 10,11 0,00 0,00 100,00 100,01 50,01 62,63 0,00 20,00 9,16 18,45
05/05 - 00:00 arome 14,24 14,24 14,70 6,70 12,30 86,32 0,00 (1h) 0,00 10,10 1,25 0,00 100,00 100,01 50,01 47,75 0,00 23,85 9,53 20,46
05/05 - 01:00 arome 13,67 13,67 14,24 6,17 11,90 89,40 0,00 (1h) 0,00 10,10 91,10 0,80 100,00 100,01 91,10 61,41 0,00 32,10 9,35 19,26
05/05 - 02:00 arome 13,14 13,13 13,66 6,31 10,90 94,80 0,00 (1h) 0,00 10,10 100,00 92,05 100,00 100,01 100,00 61,20 0,00 29,97 6,77 20,28
05/05 - 03:00 arome 13,25 13,12 13,25 6,27 10,54 96,74 0,00 (1h) 0,00 10,09 100,00 0,25 100,00 100,01 100,00 23,70 0,00 25,13 8,99 17,86
05/05 - 04:00 arome 13,00 13,00 13,27 6,10 10,32 98,61 0,00 (1h) 0,00 10,09 100,00 100,00 100,00 100,01 100,00 45,26 0,00 10,97 9,46 18,90
05/05 - 05:00 arome 12,83 12,82 12,99 5,60 9,98 97,64 0,00 (1h) 0,00 10,08 100,00 100,00 100,00 100,01 100,00 7,59 0,00 24,99 10,57 21,42
05/05 - 06:00 arome 13,01 12,81 13,02 5,40 9,86 93,97 0,00 (1h) 0,00 10,08 100,00 100,00 100,00 100,01 100,00 10,41 0,00 32,34 13,12 25,96
05/05 - 07:00 arome 13,21 13,00 13,21 5,39 9,73 93,04 0,00 (1h) 0,00 10,08 100,00 100,00 100,00 100,01 100,00 16,81 0,00 42,97 11,51 27,25
05/05 - 08:00 arome 13,13 13,12 13,35 5,26 9,88 93,17 0,00 (1h) 0,00 10,08 100,00 100,00 100,00 100,01 100,00 24,88 0,00 28,32 11,53 24,04
05/05 - 09:00 arome 13,60 13,14 13,60 5,18 9,92 90,08 0,11 (1h) 0,00 10,07 100,00 100,00 100,00 100,01 100,00 44,66 0,00 25,16 12,45 25,62
05/05 - 10:00 arome 14,18 13,61 14,29 5,48 10,13 88,08 1,08 (1h) 0,00 10,07 100,00 100,00 100,00 100,01 100,00 64,88 0,00 16,98 13,44 26,95
05/05 - 11:00 arome 14,01 13,96 14,17 5,66 10,07 88,98 1,27 (1h) 0,00 10,07 100,00 100,00 100,00 100,01 100,00 48,11 0,00 18,69 15,39 30,84
05/05 - 12:00 arome 14,14 13,91 14,16 5,44 10,28 88,60 1,06 (1h) 0,00 10,06 100,00 100,00 100,00 100,01 100,00 56,01 0,00 7,16 15,02 31,50
05/05 - 13:00 arome 14,65 14,13 14,64 5,63 10,58 86,58 1,06 (1h) 0,00 10,06 100,00 100,00 100,00 100,01 100,00 100,94 0,00 5,85 14,84 30,38
05/05 - 14:00 arome 14,62 14,56 14,72 6,13 11,31 87,61 4,07 (1h) 0,00 10,05 100,00 100,00 100,00 100,01 100,00 179,99 0,00 2,71 14,45 32,22
05/05 - 15:00 arome 14,67 14,38 14,74 6,55 10,87 87,95 5,50 (1h) 0,00 10,05 100,00 100,00 100,00 100,01 100,00 263,41 0,00 23,37 12,98 33,26
05/05 - 16:00 arome 14,53 14,53 14,78 6,22 11,25 85,84 0,43 (1h) 0,00 10,05 100,00 100,00 100,00 100,01 100,00 308,68 0,00 12,53 20,58 49,87
05/05 - 17:00 arome 14,22 14,21 14,53 6,28 10,46 87,89 3,24 (1h) 0,00 10,05 100,00 100,00 100,00 100,01 100,00 172,24 0,00 22,42 15,58 42,57
05/05 - 18:00 arome 13,80 13,81 14,23 6,39 10,08 86,83 0,00 (1h) 0,00 10,04 100,00 100,00 100,00 100,01 100,00 240,57 0,00 26,78 21,41 43,83
05/05 - 19:00 arome 13,48 13,48 13,78 5,95 10,09 87,46 2,68 (1h) 0,00 10,04 100,00 98,00 100,00 100,01 100,00 150,10 0,00 38,22 21,99 45,75
05/05 - 20:00 arome 13,20 13,20 13,48 5,78 10,13 86,11 0,02 (1h) 0,00 10,05 100,00 91,60 100,00 100,01 100,00 106,40 0,00 24,85 20,99 44,00
05/05 - 21:00 arome 12,75 12,75 13,19 5,32 9,37 88,49 0,95 (1h) 0,00 10,05 100,00 100,00 100,00 100,01 100,00 24,58 0,00 26,97 18,42 42,53
05/05 - 22:00 arome 12,67 12,67 12,75 5,23 9,12 89,04 0,27 (1h) 0,00 10,05 100,00 100,00 57,90 100,01 100,00 52,76 0,00 15,33 15,12 36,76
05/05 - 23:00 arome 12,47 12,48 12,67 5,06 9,00 90,30 0,08 (1h) 0,00 10,06 100,00 100,00 0,00 100,01 100,00 82,37 0,00 353,76 13,58 31,50
06/05 - 00:00 arome 11,38 11,38 12,44 5,06 7,93 89,13 0,12 (1h) 0,00 10,06 100,00 100,00 100,00 100,01 100,00 139,53 0,00 347,21 12,85 29,20
06/05 - 01:00 arome 11,20 11,20 11,39 5,03 7,51 88,47 0,27 (1h) 0,00 10,06 100,00 100,00 0,15 100,01 100,00 175,62 0,00 332,16 11,56 25,80
06/05 - 02:00 arome 10,94 10,94 11,20 4,92 7,34 90,11 0,98 (1h) 0,00 10,06 100,00 100,00 0,00 100,01 100,00 153,30 0,00 328,65 11,00 22,69
06/05 - 03:00 arome 10,77 10,77 10,93 4,44 7,19 89,54 0,66 (1h) 0,00 10,06 100,00 29,05 96,15 100,01 100,00 104,43 0,00 321,84 10,90 23,41
06/05 - 04:00 arome 10,61 10,61 10,78 4,02 6,96 88,47 0,07 (1h) 0,00 10,06 100,00 100,00 3,20 100,01 100,00 88,18 0,00 322,28 9,65 21,34
06/05 - 05:00 arome 10,32 10,32 10,60 3,65 6,61 89,30 0,71 (1h) 0,00 10,06 100,00 95,20 0,00 100,01 100,00 57,78 0,00 326,81 10,32 20,16
06/05 - 06:00 arome 10,45 10,26 10,45 3,40 6,31 85,51 0,07 (1h) 0,00 10,06 100,00 100,00 0,00 100,01 100,00 24,15 0,00 339,36 11,85 23,79